createdAt,value
2019-02-17T00:00:37.590Z,102474.67
2019-02-17T00:03:26.975Z,102439.09
2019-02-17T00:06:08.735Z,102442.92
2019-02-17T00:08:58.254Z,102470.87
2019-02-17T00:11:40.464Z,102436.39
2019-02-17T00:14:43.966Z,102443.09
2019-02-17T00:17:14.341Z,102469.55
2019-02-17T00:20:03.965Z,102449.56
2019-02-17T00:22:49.072Z,102431.65
2019-02-17T00:25:40.617Z,102436.04
2019-02-17T00:28:23.254Z,102462.43
2019-02-17T00:31:12.844Z,102458.82
2019-02-17T00:33:55.138Z,102431.53
2019-02-17T00:36:44.824Z,102462.03
2019-02-17T00:39:27.580Z,102444.86
2019-02-17T00:45:18.672Z,102468.02
2019-02-17T00:48:08.049Z,102429.76
2019-02-17T00:50:50.764Z,102465.83
2019-02-17T00:53:40.325Z,102434.34
2019-02-17T00:56:22.116Z,102465.59
2019-02-17T00:59:11.952Z,102457.93
2019-02-17T01:01:56.568Z,102427.69
2019-02-17T01:04:46.108Z,102431.14
2019-02-17T01:07:28.497Z,102437.81
2019-02-17T01:10:18.319Z,102437.16
2019-02-17T01:13:02.511Z,102435.16
2019-02-17T01:15:51.790Z,102459.31
2019-02-17T01:18:35.215Z,102455.56
2019-02-17T01:21:38.901Z,102428.30
2019-02-17T01:24:11.441Z,102419.72
2019-02-17T01:27:00.372Z,102449.02
2019-02-17T01:29:42.600Z,102430.59
2019-02-17T01:32:32.270Z,102456.89
2019-02-17T01:35:14.629Z,102433.52
2019-02-17T01:38:06.136Z,102427.72
2019-02-17T01:40:49.827Z,102457.84
2019-02-17T01:43:39.558Z,102421.27
2019-02-17T01:46:21.761Z,102416.02
2019-02-17T01:49:11.683Z,102420.09
2019-02-17T01:51:54.087Z,102452.44
2019-02-17T01:54:43.482Z,102446.36
2019-02-17T01:57:28.031Z,102436.19
2019-02-17T02:00:17.445Z,102407.98
2019-02-17T02:02:59.727Z,102407.91
2019-02-17T02:05:49.401Z,102403.66
2019-02-17T02:08:31.629Z,102405.42
2019-02-17T02:14:11.045Z,102393.58
2019-02-17T02:17:00.393Z,102399.63
2019-02-17T02:19:42.366Z,102392.50
2019-02-17T02:25:35.071Z,102403.36
2019-02-17T02:28:24.720Z,102425.30
2019-02-17T02:30:55.306Z,102424.20
2019-02-17T02:33:44.945Z,102421.00
2019-02-17T02:36:26.913Z,102394.66
2019-02-17T02:42:17.322Z,102394.25
2019-02-17T02:45:07.872Z,102390.59
2019-02-17T02:47:50.679Z,102382.86
2019-02-17T02:50:33.813Z,102378.22
2019-02-17T02:56:10.696Z,102393.32
2019-02-17T02:59:00.055Z,102388.72
2019-02-17T03:01:42.034Z,102414.54
2019-02-17T03:04:31.923Z,102380.19
2019-02-17T03:07:17.001Z,102388.25
2019-02-17T03:10:07.044Z,102412.34
2019-02-17T03:12:49.143Z,102418.09
2019-02-17T03:18:26.672Z,102416.90
2019-02-17T03:21:18.504Z,102383.64
2019-02-17T03:24:08.543Z,102411.02
2019-02-17T03:26:57.938Z,102376.23
2019-02-17T03:29:39.504Z,102411.69
2019-02-17T03:35:17.517Z,102394.55
2019-02-17T03:40:55.183Z,102417.98
2019-02-17T03:46:32.304Z,102385.13
2019-02-17T03:52:09.302Z,102381.23
2019-02-17T03:57:59.905Z,102381.06
2019-02-17T04:00:49.595Z,102378.30
2019-02-17T04:03:31.434Z,102373.36
2019-02-17T04:08:56.642Z,102400.59
2019-02-17T04:11:46.292Z,102368.56
2019-02-17T04:14:35.668Z,102403.15
2019-02-17T04:17:17.449Z,102403.39
2019-02-17T04:20:06.930Z,102400.81
2019-02-17T04:22:37.165Z,102396.02
2019-02-17T04:25:07.392Z,102398.94
2019-02-17T04:30:44.757Z,102393.27
2019-02-17T04:33:34.129Z,102392.11
2019-02-17T04:36:04.665Z,102387.58
2019-02-17T04:41:41.722Z,102383.34
2019-02-17T04:44:31.274Z,102381.59
2019-02-17T04:47:13.822Z,102342.11
2019-02-17T04:52:53.398Z,102347.83
2019-02-17T04:58:45.489Z,102334.73
2019-02-17T05:01:48.431Z,102365.16
2019-02-17T05:04:18.161Z,102365.21
2019-02-17T05:07:07.540Z,102354.73
2019-02-17T05:09:49.121Z,102374.47
2019-02-17T05:12:38.459Z,102337.14
2019-02-17T05:15:21.085Z,102339.27
2019-02-17T05:18:10.502Z,102368.52
2019-02-17T05:20:54.854Z,102365.82
2019-02-17T05:23:44.418Z,102330.59
2019-02-17T05:26:26.403Z,102368.81
2019-02-17T05:29:08.741Z,102339.85
2019-02-17T05:31:58.170Z,102349.66
2019-02-17T05:34:40.111Z,102342.01
2019-02-17T05:40:18.761Z,102344.97
2019-02-17T05:43:08.691Z,102336.11
2019-02-17T05:45:51.017Z,102369.46
2019-02-17T05:48:40.641Z,102326.42
2019-02-17T05:51:22.233Z,102357.95
2019-02-17T05:54:04.165Z,102362.25
2019-02-17T05:56:53.820Z,102365.16
2019-02-17T05:59:35.435Z,102366.09
2019-02-17T06:05:12.321Z,102344.28
2019-02-17T06:08:02.099Z,102335.64
2019-02-17T06:10:43.744Z,102364.36
2019-02-17T06:13:33.445Z,102373.36
2019-02-17T06:16:15.639Z,102340.30
2019-02-17T06:19:07.386Z,102336.54
2019-02-17T06:21:49.830Z,102339.29
2019-02-17T06:24:39.769Z,102373.16
2019-02-17T06:27:22.089Z,102339.30
2019-02-17T06:32:58.510Z,102349.30
2019-02-17T06:38:35.348Z,102376.44
2019-02-17T06:41:25.014Z,102344.18
2019-02-17T06:44:07.179Z,102346.01
2019-02-17T06:49:47.822Z,102351.03
2019-02-17T06:52:29.512Z,102384.95
2019-02-17T06:55:37.921Z,102385.56
2019-02-17T06:58:08.078Z,102380.41
2019-02-17T07:00:59.389Z,102355.94
2019-02-17T07:03:41.836Z,102363.72
2019-02-17T07:06:34.766Z,102388.44
2019-02-17T07:09:17.408Z,102390.58
2019-02-17T07:12:06.951Z,102388.63
2019-02-17T07:14:38.458Z,102386.49
2019-02-17T07:17:28.321Z,102348.60
2019-02-17T07:20:10.178Z,102350.06
2019-02-17T07:22:59.606Z,102391.38
2019-02-17T07:25:42.595Z,102374.22
2019-02-17T07:31:22.691Z,102397.42
2019-02-17T07:34:25.829Z,102398.72
2019-02-17T07:36:55.640Z,102403.70
2019-02-17T07:42:45.713Z,102399.97
2019-02-17T07:45:35.035Z,102371.25
2019-02-17T07:48:17.539Z,102363.34
2019-02-17T07:59:32.386Z,102380.44
2019-02-17T08:02:22.113Z,102348.80
2019-02-17T08:08:12.451Z,102359.44
2019-02-17T08:11:04.334Z,102385.36
2019-02-17T08:13:45.597Z,102353.55
2019-02-17T08:16:35.195Z,102387.78
2019-02-17T08:19:16.870Z,102385.69
2019-02-17T08:22:06.321Z,102387.05
2019-02-17T08:24:48.767Z,102388.72
2019-02-17T08:30:25.067Z,102392.19
2019-02-17T08:33:14.673Z,102355.21
2019-02-17T08:35:56.679Z,102388.61
2019-02-17T08:41:33.574Z,102353.59
2019-02-17T08:47:10.739Z,102343.80
2019-02-17T08:52:48.117Z,102342.97
2019-02-17T08:55:39.775Z,102348.56
2019-02-17T08:58:22.121Z,102334.35
2019-02-17T09:00:53.087Z,102367.51
2019-02-17T09:06:56.111Z,102338.87
2019-02-17T09:09:38.857Z,102377.05
2019-02-17T09:12:28.266Z,102343.16
2019-02-17T09:15:10.203Z,102344.89
2019-02-17T09:20:53.803Z,102362.08
2019-02-17T09:23:24.112Z,102366.14
2019-02-17T09:26:13.789Z,102333.80
2019-02-17T09:32:04.083Z,102331.08
2019-02-17T09:37:54.742Z,102323.95
2019-02-17T09:43:46.724Z,102350.58
2019-02-17T09:46:36.044Z,102352.88
2019-02-17T09:49:18.287Z,102350.43
2019-02-17T09:52:08.028Z,102329.50
2019-02-17T09:55:11.158Z,102321.63
2019-02-17T09:57:41.256Z,102324.56
2019-02-17T10:03:17.659Z,102315.88
2019-02-17T10:06:07.086Z,102340.50
2019-02-17T10:08:49.828Z,102345.48
2019-02-17T10:14:41.035Z,102349.92
2019-02-17T10:20:31.662Z,102319.27
2019-02-17T10:23:21.060Z,102335.88
2019-02-17T10:26:02.909Z,102307.81
2019-02-17T10:28:52.345Z,102305.98
2019-02-17T10:31:34.134Z,102322.31
2019-02-17T10:34:23.569Z,102325.04
2019-02-17T10:37:06.074Z,102297.73
2019-02-17T10:39:36.403Z,102319.34
2019-02-17T10:42:25.796Z,102298.50
2019-02-17T10:44:56.301Z,102311.08
2019-02-17T10:47:46.084Z,102304.85
2019-02-17T10:50:38.082Z,102281.16
2019-02-17T10:53:20.656Z,102273.63
2019-02-17T10:56:12.073Z,102295.09
2019-02-17T10:58:55.685Z,102272.77
2019-02-17T11:01:45.007Z,102289.34
2019-02-17T11:04:27.384Z,102260.55
2019-02-17T11:07:16.740Z,102266.52
2019-02-17T11:09:59.400Z,102280.09
2019-02-17T11:12:51.476Z,102280.73
2019-02-17T11:15:34.231Z,102276.18
2019-02-17T11:21:11.628Z,102270.03
2019-02-17T11:27:01.899Z,102234.98
2019-02-17T11:29:51.262Z,102225.63
2019-02-17T11:32:33.310Z,102250.59
2019-02-17T11:38:25.560Z,102217.92
2019-02-17T11:40:55.861Z,102241.14
2019-02-17T11:43:45.616Z,102214.30
2019-02-17T11:46:35.305Z,102240.39
2019-02-17T11:49:17.277Z,102204.05
2019-02-17T11:55:02.099Z,102186.84
2019-02-17T11:57:46.114Z,102189.39
2019-02-17T12:00:36.335Z,102189.41
2019-02-17T12:03:22.182Z,102207.85
2019-02-17T12:09:54.918Z,102202.63
2019-02-17T12:12:40.613Z,102181.04
2019-02-17T12:15:34.472Z,102176.39
2019-02-17T12:18:20.895Z,102196.08
2019-02-17T12:27:38.888Z,102177.41
2019-02-17T12:30:18.589Z,102173.67
2019-02-17T12:36:01.223Z,102162.89
2019-02-17T12:38:51.822Z,102155.45
2019-02-17T12:41:34.506Z,102136.76
2019-02-17T12:44:37.743Z,102123.61
2019-02-17T12:47:12.273Z,102117.81
2019-02-17T12:49:56.141Z,102137.34
2019-02-17T12:52:46.845Z,102135.66
2019-02-17T12:55:27.101Z,102129.44
2019-02-17T12:58:29.655Z,102090.08
2019-02-17T13:01:13.402Z,102094.66
2019-02-17T13:07:04.910Z,102111.55
2019-02-17T13:09:54.263Z,102111.44
2019-02-17T13:12:35.945Z,102086.38
2019-02-17T13:15:38.740Z,102113.48
2019-02-17T13:18:09.765Z,102093.45
2019-02-17T13:24:02.079Z,102097.00
2019-02-17T13:26:32.429Z,102099.77
2019-02-17T13:32:17.097Z,102071.02
2019-02-17T13:34:59.478Z,102062.02
2019-02-17T13:37:48.872Z,102084.05
2019-02-17T13:40:31.195Z,102052.78
2019-02-17T13:43:20.565Z,102052.38
2019-02-17T13:46:02.907Z,102071.59
2019-02-17T13:48:52.638Z,102045.81
2019-02-17T13:51:34.260Z,102041.11
2019-02-17T13:54:43.058Z,102037.08
2019-02-17T13:57:25.949Z,102067.00
2019-02-17T14:00:15.807Z,102058.48
2019-02-17T14:02:58.227Z,102035.92
2019-02-17T14:05:47.666Z,102057.39
2019-02-17T14:11:38.853Z,102034.41
2019-02-17T14:14:09.194Z,102054.23
2019-02-17T14:16:58.673Z,102027.39
2019-02-17T14:19:48.716Z,102024.96
2019-02-17T14:22:30.675Z,102033.52
2019-02-17T14:28:21.284Z,102049.77
2019-02-17T14:31:10.640Z,102028.62
2019-02-17T14:33:58.527Z,102045.27
2019-02-17T14:39:44.355Z,102020.59
2019-02-17T14:42:14.622Z,102044.86
2019-02-17T14:47:52.004Z,102043.53
2019-02-17T14:50:33.610Z,102042.23
2019-02-17T14:53:04.149Z,102037.71
2019-02-17T14:58:50.871Z,102034.59
2019-02-17T15:01:33.294Z,102009.25
2019-02-17T15:04:16.020Z,102012.48
2019-02-17T15:10:08.775Z,102012.50
2019-02-17T15:15:52.180Z,101999.80
2019-02-17T15:18:41.546Z,102021.23
2019-02-17T15:21:23.549Z,102023.56
2019-02-17T15:27:03.987Z,102016.08
2019-02-17T15:29:53.399Z,102017.66
2019-02-17T15:32:38.182Z,102017.68
2019-02-17T15:35:27.835Z,101985.70
2019-02-17T15:38:09.997Z,101989.87
2019-02-17T15:44:00.479Z,101981.61
2019-02-17T15:46:49.781Z,102003.41
2019-02-17T15:49:32.148Z,102002.70
2019-02-17T15:52:16.679Z,101997.67
2019-02-17T15:55:07.864Z,101997.16
2019-02-17T16:00:44.789Z,101999.16
2019-02-17T16:06:22.884Z,101966.39
2019-02-17T16:09:12.858Z,101972.63
2019-02-17T16:11:55.231Z,101972.74
2019-02-17T16:14:45.327Z,101998.87
2019-02-17T16:17:26.968Z,101967.97
2019-02-17T16:20:16.575Z,101998.03
2019-02-17T16:22:59.552Z,101968.50
2019-02-17T16:25:49.443Z,101994.44
2019-02-17T16:28:31.886Z,101972.65
2019-02-17T16:31:22.337Z,101998.16
2019-02-17T16:34:04.097Z,101977.80
2019-02-17T16:36:53.792Z,102000.80
2019-02-17T16:39:41.552Z,101981.23
2019-02-17T16:42:28.606Z,102001.87
2019-02-17T16:48:19.227Z,101975.56
2019-02-17T16:51:08.822Z,101978.84
2019-02-17T16:53:39.173Z,102006.34
2019-02-17T16:56:28.570Z,102013.61
2019-02-17T16:58:58.823Z,102011.41
2019-02-17T17:04:48.505Z,102016.20
2019-02-17T17:07:26.928Z,101993.05
2019-02-17T17:10:16.279Z,101982.28
2019-02-17T17:12:58.504Z,102015.77
2019-02-17T17:18:45.217Z,101988.46
2019-02-17T17:21:27.231Z,102018.34
2019-02-17T17:24:16.673Z,102015.29
2019-02-17T17:26:58.695Z,101989.37
2019-02-17T17:29:48.149Z,101985.14
2019-02-17T17:32:31.674Z,102017.98
2019-02-17T17:38:08.747Z,102021.95
2019-02-17T17:43:50.278Z,102019.52
2019-02-17T17:49:27.726Z,101988.52
2019-02-17T17:52:17.205Z,102025.94
2019-02-17T17:54:59.433Z,102023.34
2019-02-17T17:57:48.811Z,101996.04
2019-02-17T18:00:32.542Z,101996.37
2019-02-17T18:06:10.704Z,102020.48
2019-02-17T18:11:35.590Z,102020.31
2019-02-17T18:14:25.025Z,101991.44
2019-02-17T18:17:14.381Z,101983.61
2019-02-17T18:19:57.078Z,102020.88
2019-02-17T18:26:14.257Z,101982.62
2019-02-17T18:31:58.946Z,101980.34
2019-02-17T18:34:40.798Z,101981.97
2019-02-17T18:37:30.361Z,101984.58
2019-02-17T18:40:13.104Z,101982.14
2019-02-17T18:43:02.687Z,102008.94
2019-02-17T18:45:45.063Z,101974.62
2019-02-17T18:48:36.758Z,101978.52
2019-02-17T18:51:18.910Z,101980.48
2019-02-17T18:54:08.678Z,101984.72
2019-02-17T18:56:50.669Z,101973.78
2019-02-17T19:04:53.025Z,101972.92
2019-02-17T19:07:23.302Z,102005.12
2019-02-17T19:10:13.167Z,102007.26
2019-02-17T19:15:56.533Z,101959.20
2019-02-17T19:18:46.187Z,101947.45
2019-02-17T19:21:16.546Z,101980.11
2019-02-17T19:27:01.234Z,101974.23
2019-02-17T19:29:43.561Z,101943.95
2019-02-17T19:32:26.564Z,101940.38
2019-02-17T19:38:10.969Z,101969.80
2019-02-17T19:41:01.601Z,101933.34
2019-02-17T19:43:44.977Z,101969.44
2019-02-17T19:49:36.291Z,101936.55
2019-02-17T19:55:26.703Z,101968.61
2019-02-17T20:00:58.095Z,101976.55
2019-02-17T20:04:06.601Z,101968.70
2019-02-17T20:06:48.447Z,101964.75
2019-02-17T20:12:40.462Z,101977.95
2019-02-17T20:18:34.424Z,101980.28
2019-02-17T20:21:23.811Z,101952.70
2019-02-17T20:24:07.964Z,101988.50
2019-02-17T20:26:58.112Z,101987.50
2019-02-17T20:29:28.460Z,101991.90
2019-02-17T20:32:17.812Z,101962.52
2019-02-17T20:35:00.640Z,101960.05
2019-02-17T20:40:37.900Z,101990.14
2019-02-17T20:43:27.307Z,101991.92
2019-02-17T20:46:09.678Z,101994.25
2019-02-17T20:48:59.092Z,101959.03
2019-02-17T20:51:29.660Z,101997.17
2019-02-17T20:53:59.941Z,101996.86
2019-02-17T20:56:46.200Z,101954.61
2019-02-17T20:59:35.509Z,101960.47
2019-02-17T21:02:17.775Z,101988.20
2019-02-17T21:05:26.594Z,101954.50
2019-02-17T21:08:09.070Z,101965.59
2019-02-17T21:14:00.441Z,101969.52
2019-02-17T21:16:50.054Z,101966.52
2019-02-17T21:19:32.151Z,101966.77
2019-02-17T21:25:22.743Z,101963.77
2019-02-17T21:27:52.997Z,101998.41
2019-02-17T21:30:23.616Z,101992.27
2019-02-17T21:35:49.100Z,101986.58
2019-02-17T21:38:38.742Z,101951.54
2019-02-17T21:41:28.103Z,101983.05
2019-02-17T21:44:10.681Z,101956.53
2019-02-17T21:47:00.327Z,101955.55
2019-02-17T21:49:42.293Z,101981.28
2019-02-17T21:52:26.166Z,101981.68
2019-02-17T21:55:08.034Z,101951.54
2019-02-17T21:57:57.452Z,101961.40
2019-02-17T22:00:39.964Z,101944.70
2019-02-17T22:03:29.316Z,101974.35
2019-02-17T22:06:11.667Z,101941.08
2019-02-17T22:09:01.290Z,101979.66
2019-02-17T22:11:42.906Z,101943.19
2019-02-17T22:14:32.764Z,101977.86
2019-02-17T22:17:14.825Z,101975.19
2019-02-17T22:20:05.221Z,101955.87
2019-02-17T22:22:47.384Z,101940.63
2019-02-17T22:28:37.561Z,101941.23
2019-02-17T22:31:27.186Z,101963.02
2019-02-17T22:34:09.011Z,101966.23
2019-02-17T22:40:00.326Z,101935.80
2019-02-17T22:45:53.100Z,101967.64
2019-02-17T22:48:23.362Z,101968.23
2019-02-17T22:51:12.769Z,101933.42
2019-02-17T22:53:55.337Z,101973.31
2019-02-17T22:57:04.206Z,101934.36
2019-02-17T22:59:46.619Z,101934.70
2019-02-17T23:02:36.333Z,101936.91
2019-02-17T23:05:25.964Z,101968.84
2019-02-17T23:11:27.623Z,101935.36
2019-02-17T23:14:17.202Z,101929.95
2019-02-17T23:16:59.989Z,101968.83
2019-02-17T23:19:49.839Z,101933.98
2019-02-17T23:22:33.471Z,101930.95
2019-02-17T23:25:23.297Z,101937.95
2019-02-17T23:28:05.446Z,101966.11
2019-02-17T23:33:57.353Z,101928.22
2019-02-17T23:39:48.341Z,101935.88
2019-02-17T23:42:37.677Z,101958.66
2019-02-17T23:45:08.891Z,101960.00
2019-02-17T23:47:58.515Z,101961.70
2019-02-17T23:50:40.453Z,101960.86
2019-02-17T23:53:26.457Z,101935.92
2019-02-17T23:56:09.022Z,101924.48
